This is the latest recevied weather packets stored in our database for station/object YM7KGL-1. If no packets are shown the sender has not sent any weather packets the latest 10 day(s).
| Time | Temp. | Humidity | Pressure | Rain* | Wind** | Luminosity | Snow |
|---|---|---|---|---|---|---|---|
| 1778080466 | 19.44° C | 52% | 1017.3 hPa | - | - | - | - |
| 1778079566 | 19.44° C | 52% | 1017.3 hPa | - | - | - | - |
| 1778078666 | 20° C | 52% | 1017.2 hPa | - | - | - | - |
| 1778077975 | 20.56° C | 52% | 1017.2 hPa | - | - | - | - |
| 1778077075 | 20.56° C | 52% | 1017.1 hPa | - | - | - | - |
| 1778076174 | 21.11° C | 51% | 1017.1 hPa | - | - | - | - |
| 1778075274 | 21.67° C | 51% | 1017.1 hPa | - | - | - | - |
| 1778075237 | 21.67° C | 51% | 1017.1 hPa | - | - | - | - |
| 1778074336 | 22.22° C | 50% | 1017.1 hPa | - | - | - | - |
| 1778073435 | 22.78° C | 50% | 1017 hPa | - | - | - | - |
| 1778072535 | 23.33° C | 51% | 1017 hPa | - | - | - | - |
| 1778072523 | 23.33° C | 50% | 1017.1 hPa | - | - | - | - |
| 1778071635 | 23.33° C | 50% | 1017.1 hPa | - | - | - | - |
| 1778070301 | 24.44° C | 50% | 1017.5 hPa | - | - | - | - |
| 1778069252 | 24.44° C | 50% | 1017.5 hPa | - | - | - | - |
| 1778068500 | 23.89° C | 50% | 1017.3 hPa | - | - | - | - |
| 1778067698 | 23.89° C | 50% | 1017.4 hPa | - | - | - | - |
| 1778067600 | 23.89° C | 50% | 1017.3 hPa | - | - | - | - |
| 1778066699 | 23.89° C | 50% | 1017.4 hPa | - | - | - | - |
| 1778066597 | 23.89° C | 51% | 1017.4 hPa | - | - | - | - |
| 1778065301 | 22.78° C | 51% | 1017.3 hPa | - | - | - | - |
| 1778064227 | 22.22° C | 52% | 1017.3 hPa | - | - | - | - |
| 1778063994 | 24.44° C | 50% | 1017.5 hPa | - | - | - | - |
| 1778063282 | 21.67° C | 52% | 1017.3 hPa | - | - | - | - |
| 1778060394 | 22.22° C | 52% | 1017.3 hPa | - | - | - | - |
* Rain since midnight (hover to see other rain measurements)
** Current wind speed in m/s (hover to see current wind gust speed)